createdAt,value
2022-10-11T00:01:15.629Z,49.44
2022-10-11T00:03:45.436Z,49.63
2022-10-11T00:06:15.262Z,49.47
2022-10-11T00:08:45.151Z,49.30
2022-10-11T00:11:15.011Z,49.13
2022-10-11T00:13:47.726Z,49.39
2022-10-11T00:16:20.023Z,49.38
2022-10-11T00:18:52.736Z,49.17
2022-10-11T00:21:25.509Z,49.19
2022-10-11T00:23:55.503Z,49.08
2022-10-11T00:26:30.160Z,48.92
2022-10-11T00:29:02.670Z,49.06
2022-10-11T00:31:35.823Z,48.98
2022-10-11T00:34:08.412Z,48.85
2022-10-11T00:36:38.320Z,48.89
2022-10-11T00:39:08.774Z,48.67
2022-10-11T00:41:39.000Z,48.95
2022-10-11T00:44:23.278Z,48.77
2022-10-11T00:46:56.347Z,48.57
2022-10-11T00:49:35.611Z,48.50
2022-10-11T00:52:09.996Z,48.63
2022-10-11T00:54:44.604Z,48.54
2022-10-11T00:57:19.000Z,48.62
2022-10-11T00:59:55.171Z,48.67
2022-10-11T01:02:26.553Z,48.66
2022-10-11T01:05:18.031Z,48.76
2022-10-11T01:07:48.302Z,48.69
2022-10-11T01:10:18.369Z,48.55
2022-10-11T01:13:04.573Z,48.76
2022-10-11T01:15:43.208Z,48.59
2022-10-11T01:18:18.053Z,48.73
2022-10-11T01:20:58.189Z,48.57
2022-10-11T01:23:54.411Z,48.76
2022-10-11T01:27:08.716Z,48.79
2022-10-11T01:29:49.519Z,48.82
2022-10-11T01:32:27.334Z,48.76
2022-10-11T01:35:04.875Z,48.70
2022-10-11T01:37:38.899Z,48.75
2022-10-11T01:40:12.533Z,49.00
2022-10-11T01:42:44.539Z,49.05
2022-10-11T01:45:19.061Z,49.05
2022-10-11T01:48:04.157Z,49.01
2022-10-11T01:50:39.704Z,49.04
2022-10-11T01:53:25.394Z,48.97
2022-10-11T01:56:00.094Z,49.09
2022-10-11T01:58:39.355Z,49.32
2022-10-11T02:01:18.515Z,49.18
2022-10-11T02:03:58.123Z,49.29
2022-10-11T02:06:35.825Z,49.36
2022-10-11T02:09:13.907Z,49.45
2022-10-11T02:11:44.713Z,49.53
2022-10-11T02:14:19.380Z,49.44
2022-10-11T02:16:54.049Z,49.74
2022-10-11T02:19:34.667Z,49.71
2022-10-11T02:22:08.955Z,49.84
2022-10-11T02:24:42.886Z,49.85
2022-10-11T02:27:14.304Z,49.75
2022-10-11T02:29:48.160Z,49.83
2022-10-11T02:32:20.204Z,50.06
2022-10-11T02:34:56.679Z,50.04
2022-10-11T02:37:33.882Z,50.30
2022-10-11T02:40:13.559Z,50.20
2022-10-11T02:42:47.961Z,50.37
2022-10-11T02:45:22.089Z,50.39
2022-10-11T02:47:52.598Z,50.33
2022-10-11T02:50:25.735Z,50.51
2022-10-11T02:52:55.530Z,50.54
2022-10-11T02:55:25.412Z,50.57
2022-10-11T02:57:55.580Z,50.50
2022-10-11T03:00:25.732Z,50.59
2022-10-11T03:02:55.456Z,50.60
2022-10-11T03:05:27.884Z,50.68
2022-10-11T03:07:57.726Z,50.74
2022-10-11T03:10:28.430Z,50.67
2022-10-11T03:12:58.217Z,50.52
2022-10-11T03:15:28.110Z,50.50
2022-10-11T03:17:58.127Z,50.62
2022-10-11T03:20:30.656Z,50.63
2022-10-11T03:23:00.436Z,50.86
2022-10-11T03:25:33.512Z,50.70
2022-10-11T03:28:03.265Z,50.71
2022-10-11T03:30:33.301Z,51.03
2022-10-11T03:33:03.450Z,50.85
2022-10-11T03:35:36.024Z,50.91
2022-10-11T03:38:06.393Z,50.90
2022-10-11T03:40:37.504Z,50.92
2022-10-11T03:43:07.322Z,51.07
2022-10-11T03:45:37.172Z,50.83
2022-10-11T03:48:07.410Z,50.90
2022-10-11T03:50:40.131Z,51.10
2022-10-11T03:53:12.345Z,51.12
2022-10-11T03:55:42.976Z,51.04
2022-10-11T03:58:12.749Z,50.86
2022-10-11T04:00:42.633Z,51.08
2022-10-11T04:03:12.406Z,51.04
2022-10-11T04:05:44.860Z,51.15
2022-10-11T04:08:14.634Z,51.15
2022-10-11T04:10:44.716Z,50.94
2022-10-11T04:13:15.099Z,51.15
2022-10-11T04:15:44.981Z,51.12
2022-10-11T04:18:14.837Z,51.04
2022-10-11T04:20:47.476Z,51.35
2022-10-11T04:23:17.258Z,51.36
2022-10-11T04:25:48.387Z,51.25
2022-10-11T04:28:18.277Z,51.31
2022-10-11T04:30:48.115Z,51.49
2022-10-11T04:33:17.941Z,51.26
2022-10-11T04:35:50.367Z,51.04
2022-10-11T04:38:20.174Z,51.25
2022-10-11T04:40:49.963Z,51.11
2022-10-11T04:43:20.700Z,51.41
2022-10-11T04:45:55.252Z,51.34
2022-10-11T04:48:25.334Z,51.45
2022-10-11T04:50:58.025Z,51.46
2022-10-11T04:53:27.991Z,51.50
2022-10-11T04:56:02.136Z,51.40
2022-10-11T04:58:33.150Z,51.59
2022-10-11T05:01:03.368Z,51.50
2022-10-11T05:03:33.329Z,51.49
2022-10-11T05:06:07.490Z,51.45
2022-10-11T05:08:37.436Z,51.65
2022-10-11T05:11:09.228Z,51.52
2022-10-11T05:13:39.469Z,51.63
2022-10-11T05:16:11.365Z,51.66
2022-10-11T05:18:42.179Z,51.56
2022-10-11T05:21:19.774Z,51.81
2022-10-11T05:23:51.582Z,51.78
2022-10-11T05:26:22.353Z,51.69
2022-10-11T05:28:52.493Z,51.67
2022-10-11T05:31:22.525Z,51.70
2022-10-11T05:33:52.285Z,51.63
2022-10-11T05:36:24.846Z,51.72
2022-10-11T05:38:54.595Z,51.68
2022-10-11T05:41:24.680Z,51.66
2022-10-11T05:43:54.431Z,51.55
2022-10-11T05:46:26.908Z,51.52
2022-10-11T05:48:56.723Z,51.60
2022-10-11T05:51:29.195Z,51.64
2022-10-11T05:53:59.003Z,51.49
2022-10-11T05:56:29.556Z,51.20
2022-10-11T05:59:02.363Z,51.00
2022-10-11T06:01:32.739Z,51.06
2022-10-11T06:04:02.646Z,50.68
2022-10-11T06:06:35.133Z,50.60
2022-10-11T06:09:07.436Z,50.30
2022-10-11T06:11:37.569Z,50.02
2022-10-11T06:14:08.295Z,50.04
2022-10-11T06:16:38.242Z,49.70
2022-10-11T06:19:08.132Z,49.24
2022-10-11T06:21:40.542Z,49.32
2022-10-11T06:24:10.785Z,49.16
2022-10-11T06:26:40.947Z,48.72
2022-10-11T06:29:11.131Z,48.39
2022-10-11T06:31:40.934Z,48.21
2022-10-11T06:34:10.672Z,48.15
2022-10-11T06:36:43.083Z,47.46
2022-10-11T06:39:12.852Z,47.47
2022-10-11T06:41:42.691Z,47.28
2022-10-11T06:44:14.452Z,47.15
2022-10-11T06:46:44.418Z,47.49
2022-10-11T06:49:15.533Z,47.00
2022-10-11T06:51:49.577Z,46.66
2022-10-11T06:54:19.334Z,46.50
2022-10-11T06:56:49.095Z,45.89
2022-10-11T06:59:18.928Z,45.66
2022-10-11T07:01:48.851Z,45.68
2022-10-11T07:04:18.694Z,45.41
2022-10-11T07:06:53.387Z,45.28
2022-10-11T07:09:23.237Z,45.19
2022-10-11T07:11:52.991Z,44.87
2022-10-11T07:14:22.772Z,44.18
2022-10-11T07:16:52.510Z,44.07
2022-10-11T07:19:22.432Z,43.62
2022-10-11T07:21:54.876Z,43.72
2022-10-11T07:24:24.800Z,43.92
2022-10-11T07:26:54.608Z,42.75
2022-10-11T07:29:24.519Z,42.86
2022-10-11T07:31:54.372Z,42.86
2022-10-11T07:34:24.363Z,42.38
2022-10-11T07:36:56.716Z,42.08
2022-10-11T07:39:26.529Z,42.02
2022-10-11T07:41:56.257Z,42.33
2022-10-11T07:44:25.985Z,41.80
2022-10-11T07:46:55.762Z,41.46
2022-10-11T07:49:25.575Z,41.40
2022-10-11T07:51:57.866Z,41.70
2022-10-11T07:54:27.633Z,41.24
2022-10-11T07:56:57.451Z,41.37
2022-10-11T07:59:27.248Z,41.27
2022-10-11T08:01:57.071Z,41.05
2022-10-11T08:04:26.928Z,40.47
2022-10-11T08:06:59.269Z,39.50
2022-10-11T08:09:29.525Z,39.79
2022-10-11T08:11:59.505Z,39.75
2022-10-11T08:14:29.213Z,39.46
2022-10-11T08:16:58.973Z,39.50
2022-10-11T08:19:28.751Z,39.41
2022-10-11T08:22:01.098Z,39.56
2022-10-11T08:24:33.527Z,39.26
2022-10-11T08:27:17.617Z,38.87
2022-10-11T08:29:57.689Z,38.57
2022-10-11T08:32:40.465Z,38.58
2022-10-11T08:35:20.601Z,38.34
2022-10-11T08:38:03.309Z,37.50
2022-10-11T08:40:49.527Z,37.78
2022-10-11T08:43:38.844Z,37.46
2022-10-11T08:46:24.470Z,36.69
2022-10-11T08:49:05.262Z,35.79
2022-10-11T08:51:48.941Z,35.76
2022-10-11T08:54:42.843Z,35.21
2022-10-11T08:57:25.124Z,35.49
2022-10-11T09:00:00.428Z,35.49
2022-10-11T09:03:06.946Z,34.42
2022-10-11T09:05:37.969Z,33.89
2022-10-11T09:08:24.166Z,32.69
2022-10-11T09:11:14.019Z,33.06
2022-10-11T09:14:26.628Z,32.72
2022-10-11T09:17:14.624Z,32.12
2022-10-11T09:20:10.719Z,31.73
2022-10-11T09:22:59.238Z,30.79
2022-10-11T09:25:50.352Z,30.09
2022-10-11T09:28:31.087Z,30.16
2022-10-11T09:31:01.712Z,29.39
2022-10-11T09:33:36.360Z,29.31
2022-10-11T09:36:19.284Z,29.06
2022-10-11T09:38:54.539Z,27.47
2022-10-11T09:41:32.103Z,27.79
2022-10-11T09:44:05.123Z,26.29
2022-10-11T09:46:39.303Z,25.48
2022-10-11T09:49:14.116Z,26.11
2022-10-11T09:51:47.664Z,24.06
2022-10-11T09:54:17.512Z,23.01
2022-10-11T09:56:48.924Z,22.49
2022-10-11T09:59:29.564Z,23.09
2022-10-11T10:02:24.683Z,22.48
2022-10-11T10:05:06.373Z,20.99
2022-10-11T10:07:38.071Z,20.58
2022-10-11T10:10:32.305Z,19.50
2022-10-11T10:13:04.649Z,19.26
2022-10-11T10:15:38.621Z,20.07
2022-10-11T10:18:10.594Z,19.66
2022-10-11T10:20:41.064Z,18.54
2022-10-11T10:23:13.798Z,19.09
2022-10-11T10:25:43.875Z,18.35
2022-10-11T10:28:24.137Z,17.67
2022-10-11T10:30:59.969Z,18.35
2022-10-11T10:33:34.108Z,18.15
2022-10-11T10:36:10.124Z,19.50
2022-10-11T10:38:48.647Z,20.98
2022-10-11T10:41:22.509Z,21.24
2022-10-11T10:43:55.560Z,21.18
2022-10-11T10:46:46.064Z,24.40
2022-10-11T10:49:48.388Z,21.88
2022-10-11T10:52:35.844Z,21.64
2022-10-11T10:55:16.883Z,21.37
2022-10-11T10:57:59.736Z,21.37
2022-10-11T11:00:36.905Z,22.11
2022-10-11T11:03:12.736Z,22.37
2022-10-11T11:05:50.527Z,22.45
2022-10-11T11:08:34.690Z,22.72
2022-10-11T11:11:11.151Z,21.85
2022-10-11T11:13:47.872Z,22.12
2022-10-11T11:16:26.449Z,21.47
2022-10-11T11:19:09.129Z,21.22
2022-10-11T11:21:50.390Z,21.15
2022-10-11T11:24:32.130Z,21.58
2022-10-11T11:27:09.177Z,22.41
2022-10-11T11:29:55.322Z,21.96
2022-10-11T11:32:37.146Z,21.99
2022-10-11T11:35:14.974Z,22.30
2022-10-11T11:37:47.719Z,23.07
2022-10-11T11:40:20.685Z,24.27
2022-10-11T11:42:53.754Z,25.00
2022-10-11T11:45:27.640Z,25.25
2022-10-11T11:48:04.805Z,26.12
2022-10-11T11:50:45.960Z,25.28
2022-10-11T11:53:19.099Z,25.81
2022-10-11T11:55:57.160Z,26.12
2022-10-11T11:58:38.139Z,27.26
2022-10-11T12:01:17.943Z,27.97
2022-10-11T12:03:51.059Z,28.74
2022-10-11T12:07:04.042Z,28.85
2022-10-11T12:09:33.244Z,28.74
2022-10-11T12:12:06.888Z,27.41
2022-10-11T12:14:41.962Z,25.67
2022-10-11T12:17:19.187Z,23.78
2022-10-11T12:20:09.512Z,22.90
2022-10-11T12:22:55.264Z,20.99
2022-10-11T12:26:18.945Z,20.06
2022-10-11T12:29:18.578Z,16.32
2022-10-11T12:31:51.938Z,14.89
2022-10-11T12:34:37.882Z,14.74
2022-10-11T12:37:37.837Z,14.44
2022-10-11T12:40:47.041Z,14.62
2022-10-11T12:43:55.649Z,15.68
2022-10-11T12:46:49.307Z,17.65
2022-10-11T12:49:29.645Z,19.96
2022-10-11T12:52:03.573Z,21.37
2022-10-11T12:55:06.087Z,22.17
2022-10-11T12:58:10.059Z,23.80
2022-10-11T13:00:46.675Z,25.59
2022-10-11T13:03:32.828Z,26.18
2022-10-11T13:06:03.533Z,26.78
2022-10-11T13:08:40.373Z,28.27
2022-10-11T13:11:20.354Z,27.74
2022-10-11T13:13:58.250Z,28.45
2022-10-11T13:16:30.590Z,27.87
2022-10-11T13:19:02.718Z,28.38
2022-10-11T13:21:36.258Z,28.55
2022-10-11T13:24:14.583Z,28.71
2022-10-11T13:26:45.822Z,29.25
2022-10-11T13:29:23.947Z,29.31
2022-10-11T13:31:53.859Z,29.79
2022-10-11T13:34:24.545Z,29.70
2022-10-11T13:36:58.543Z,29.42
2022-10-11T13:39:31.870Z,29.80
2022-10-11T13:42:03.718Z,30.24
2022-10-11T13:44:38.671Z,30.64
2022-10-11T13:47:09.046Z,30.89
2022-10-11T13:49:41.303Z,30.36
2022-10-11T13:52:23.818Z,31.17
2022-10-11T13:55:01.263Z,30.78
2022-10-11T13:57:38.673Z,30.45
2022-10-11T14:00:30.677Z,29.78
2022-10-11T14:03:05.198Z,29.97
2022-10-11T14:05:38.540Z,29.69
2022-10-11T14:08:10.707Z,30.02
2022-10-11T14:10:40.553Z,29.37
2022-10-11T14:13:25.757Z,29.90
2022-10-11T14:16:10.250Z,30.13
2022-10-11T14:18:45.524Z,28.59
2022-10-11T14:21:37.918Z,28.06
2022-10-11T14:24:10.689Z,27.53
2022-10-11T14:26:42.479Z,28.56
2022-10-11T14:29:17.503Z,28.06
2022-10-11T14:31:50.119Z,28.22
2022-10-11T14:34:22.995Z,28.00
2022-10-11T14:36:54.092Z,28.54
2022-10-11T14:39:26.174Z,28.31
2022-10-11T14:41:56.656Z,28.35
2022-10-11T14:44:26.529Z,28.36
2022-10-11T14:46:59.101Z,28.97
2022-10-11T14:49:32.344Z,28.71
2022-10-11T14:52:02.332Z,29.10
2022-10-11T14:54:33.281Z,28.79
2022-10-11T14:57:08.495Z,29.80
2022-10-11T14:59:39.760Z,29.25
2022-10-11T15:02:14.408Z,29.26
2022-10-11T15:04:44.262Z,28.97
2022-10-11T15:07:15.543Z,29.39
2022-10-11T15:09:45.314Z,29.60
2022-10-11T15:12:15.117Z,29.26
2022-10-11T15:14:44.922Z,29.52
2022-10-11T15:17:17.480Z,29.60
2022-10-11T15:19:47.599Z,30.10
2022-10-11T15:22:17.487Z,29.98
2022-10-11T15:24:51.520Z,30.17
2022-10-11T15:27:25.457Z,30.41
2022-10-11T15:29:55.224Z,30.65
2022-10-11T15:32:27.783Z,30.97
2022-10-11T15:34:57.515Z,30.93
2022-10-11T15:37:27.479Z,30.94
2022-10-11T15:39:57.280Z,30.75
2022-10-11T15:42:27.102Z,31.82
2022-10-11T15:44:56.938Z,31.23
2022-10-11T15:47:29.361Z,31.42
2022-10-11T15:49:59.225Z,31.57
2022-10-11T15:52:29.169Z,32.25
2022-10-11T15:54:58.977Z,32.15
2022-10-11T15:57:28.795Z,31.95
2022-10-11T15:59:59.229Z,32.35
2022-10-11T16:02:31.928Z,32.40
2022-10-11T16:05:01.918Z,32.97
2022-10-11T16:07:31.981Z,32.56
2022-10-11T16:10:01.748Z,33.02
2022-10-11T16:12:31.514Z,32.80
2022-10-11T16:15:01.444Z,33.76
2022-10-11T16:17:36.865Z,33.48
2022-10-11T16:20:08.132Z,33.71
2022-10-11T16:22:38.667Z,34.13
2022-10-11T16:25:08.609Z,34.61
2022-10-11T16:27:38.520Z,34.22
2022-10-11T16:30:13.958Z,34.65
2022-10-11T16:32:46.900Z,34.63
2022-10-11T16:35:19.122Z,34.67
2022-10-11T16:37:52.014Z,34.81
2022-10-11T16:40:23.638Z,35.44
2022-10-11T16:42:53.631Z,35.05
2022-10-11T16:45:23.520Z,35.11
2022-10-11T16:47:55.995Z,34.84
2022-10-11T16:50:26.306Z,34.90
2022-10-11T16:53:03.705Z,35.63
2022-10-11T16:55:33.471Z,35.64
2022-10-11T16:58:03.311Z,35.62
2022-10-11T17:00:33.134Z,35.84
2022-10-11T17:03:05.543Z,36.07
2022-10-11T17:05:35.371Z,36.31
2022-10-11T17:08:05.393Z,36.14
2022-10-11T17:10:44.508Z,36.25
2022-10-11T17:13:14.349Z,36.41
2022-10-11T17:15:44.231Z,36.75
2022-10-11T17:18:16.668Z,36.38
2022-10-11T17:20:46.903Z,36.63
2022-10-11T17:23:16.762Z,36.84
2022-10-11T17:25:47.921Z,36.97
2022-10-11T17:28:17.827Z,36.71
2022-10-11T17:30:55.926Z,37.03
2022-10-11T17:33:31.591Z,37.13
2022-10-11T17:36:04.877Z,37.39
2022-10-11T17:38:35.044Z,37.29
2022-10-11T17:41:09.476Z,37.20
2022-10-11T17:43:39.434Z,37.60
2022-10-11T17:46:10.125Z,37.81
2022-10-11T17:48:44.686Z,37.68
2022-10-11T17:51:22.812Z,37.69
2022-10-11T17:53:53.584Z,37.46
2022-10-11T17:56:31.318Z,37.84
2022-10-11T17:59:03.603Z,37.71
2022-10-11T18:01:33.522Z,37.89
2022-10-11T18:04:10.394Z,37.91
2022-10-11T18:06:43.584Z,37.97
2022-10-11T18:09:15.266Z,37.71
2022-10-11T18:11:45.738Z,38.09
2022-10-11T18:14:15.964Z,37.79
2022-10-11T18:17:01.336Z,38.22
2022-10-11T18:19:33.742Z,38.10
2022-10-11T18:22:07.014Z,37.75
2022-10-11T18:24:37.515Z,38.14
2022-10-11T18:27:07.483Z,38.44
2022-10-11T18:29:37.363Z,38.03
2022-10-11T18:32:07.249Z,38.27
2022-10-11T18:34:39.752Z,38.45
2022-10-11T18:37:09.490Z,38.60
2022-10-11T18:39:39.287Z,38.56
2022-10-11T18:42:09.797Z,38.45
2022-10-11T18:44:39.609Z,38.52
2022-10-11T18:47:09.431Z,38.65
2022-10-11T18:49:41.920Z,38.70
2022-10-11T18:52:12.508Z,38.93
2022-10-11T18:54:42.570Z,38.81
2022-10-11T18:57:12.537Z,38.88
2022-10-11T18:59:42.443Z,38.83
2022-10-11T19:02:13.789Z,38.96
2022-10-11T19:04:52.537Z,39.14
2022-10-11T19:07:26.783Z,39.11
2022-10-11T19:09:56.719Z,39.22
2022-10-11T19:12:26.587Z,39.10
2022-10-11T19:14:57.344Z,39.07
2022-10-11T19:17:27.376Z,39.09
2022-10-11T19:19:59.817Z,39.21
2022-10-11T19:22:29.615Z,39.33
2022-10-11T19:24:59.409Z,39.53
2022-10-11T19:27:30.630Z,39.18
2022-10-11T19:30:00.530Z,39.34
2022-10-11T19:32:30.406Z,39.29
2022-10-11T19:35:02.787Z,39.58
2022-10-11T19:37:33.033Z,39.40
2022-10-11T19:40:05.933Z,39.29
2022-10-11T19:42:35.899Z,39.38
2022-10-11T19:45:08.306Z,39.40
2022-10-11T19:47:40.188Z,39.71
2022-10-11T19:50:13.053Z,39.57
2022-10-11T19:52:48.411Z,39.93
2022-10-11T19:55:18.363Z,39.49
2022-10-11T19:57:48.116Z,39.51
2022-10-11T20:00:19.051Z,40.29
2022-10-11T20:02:48.915Z,39.77
2022-10-11T20:05:21.577Z,39.79
2022-10-11T20:07:51.687Z,39.62
2022-10-11T20:10:25.188Z,39.75
2022-10-11T20:12:54.976Z,39.77
2022-10-11T20:15:24.712Z,39.81
2022-10-11T20:17:54.499Z,39.87
2022-10-11T20:20:27.202Z,40.05
2022-10-11T20:22:57.506Z,40.04
2022-10-11T20:25:27.318Z,39.89
2022-10-11T20:27:57.211Z,39.92
2022-10-11T20:30:27.169Z,39.92
2022-10-11T20:33:07.231Z,40.00
2022-10-11T20:35:39.955Z,39.95
2022-10-11T20:38:09.722Z,39.87
2022-10-11T20:40:42.866Z,40.25
2022-10-11T20:43:14.149Z,40.24
2022-10-11T20:45:44.506Z,40.27
2022-10-11T20:48:14.539Z,40.12
2022-10-11T20:50:49.468Z,40.34
2022-10-11T20:53:19.219Z,40.06
2022-10-11T20:55:49.181Z,40.11
2022-10-11T20:58:19.711Z,40.19
2022-10-11T21:00:50.199Z,40.16
2022-10-11T21:03:20.603Z,40.23
2022-10-11T21:06:00.730Z,40.30
2022-10-11T21:08:30.469Z,40.18
2022-10-11T21:11:00.321Z,40.15
2022-10-11T21:13:34.020Z,40.12
2022-10-11T21:16:08.063Z,40.17
2022-10-11T21:18:37.795Z,40.47
2022-10-11T21:21:12.343Z,40.29
2022-10-11T21:23:42.498Z,40.40
2022-10-11T21:26:14.833Z,40.28
2022-10-11T21:28:44.762Z,40.51
2022-10-11T21:31:18.259Z,40.54
2022-10-11T21:33:48.547Z,40.64
2022-10-11T21:36:25.046Z,40.74
2022-10-11T21:38:56.031Z,40.76
2022-10-11T21:41:29.137Z,40.65
2022-10-11T21:43:59.246Z,40.75
2022-10-11T21:49:21.943Z,40.73
2022-10-11T21:51:54.587Z,40.71
2022-10-11T21:54:24.396Z,40.77
2022-10-11T21:56:54.415Z,40.94
2022-10-11T21:59:24.283Z,41.01
2022-10-11T22:01:58.075Z,40.81
2022-10-11T22:04:30.606Z,40.91
2022-10-11T22:07:03.130Z,41.00
2022-10-11T22:09:35.034Z,41.19
2022-10-11T22:12:05.016Z,41.24
2022-10-11T22:14:37.600Z,40.99
2022-10-11T22:17:07.355Z,41.15
2022-10-11T22:19:37.215Z,41.00
2022-10-11T22:22:09.571Z,41.03
2022-10-11T22:24:39.364Z,41.20
2022-10-11T22:27:09.212Z,41.19
2022-10-11T22:29:39.158Z,41.35
2022-10-11T22:32:11.597Z,41.03
2022-10-11T22:34:41.468Z,40.84
2022-10-11T22:37:13.986Z,41.06
2022-10-11T22:39:43.802Z,41.13
2022-10-11T22:42:13.687Z,40.91
2022-10-11T22:44:43.461Z,40.89
2022-10-11T22:47:13.237Z,40.73
2022-10-11T22:49:43.052Z,40.84
2022-10-11T22:52:18.122Z,40.92
2022-10-11T22:54:48.142Z,40.84
2022-10-11T22:57:18.277Z,40.77
2022-10-11T22:59:48.376Z,41.06
2022-10-11T23:02:18.282Z,41.07
2022-10-11T23:04:48.276Z,41.03
2022-10-11T23:07:22.884Z,40.84
2022-10-11T23:09:52.724Z,40.92
2022-10-11T23:12:22.606Z,41.08
2022-10-11T23:14:52.405Z,40.95
2022-10-11T23:17:22.415Z,40.83
2022-10-11T23:19:52.745Z,40.91
2022-10-11T23:22:25.211Z,41.00
2022-10-11T23:24:55.687Z,40.98
2022-10-11T23:27:25.510Z,41.07
2022-10-11T23:29:56.022Z,40.82
2022-10-11T23:32:26.048Z,40.83
2022-10-11T23:34:56.065Z,40.66
2022-10-11T23:37:30.941Z,40.82
2022-10-11T23:40:01.537Z,41.04
2022-10-11T23:42:31.392Z,41.03
2022-10-11T23:45:01.407Z,40.96
2022-10-11T23:47:31.298Z,41.04
2022-10-11T23:50:01.095Z,40.90
2022-10-11T23:52:33.487Z,41.07
2022-10-11T23:55:05.187Z,41.06
2022-10-11T23:57:35.257Z,41.09
